sensor_id;sensor_type;location;lat;lon;timestamp;temperature;humidity
15596;DHT22;7898;48.658;9.068;2024-03-06T00:00:58;4.40;99.90
15596;DHT22;7898;48.658;9.068;2024-03-06T00:03:26;4.30;99.90
15596;DHT22;7898;48.658;9.068;2024-03-06T00:05:53;4.30;99.90
15596;DHT22;7898;48.658;9.068;2024-03-06T00:08:20;4.60;99.90
15596;DHT22;7898;48.658;9.068;2024-03-06T00:10:47;4.40;99.90
15596;DHT22;7898;48.658;9.068;2024-03-06T00:13:14;4.40;99.90
15596;DHT22;7898;48.658;9.068;2024-03-06T00:15:41;4.40;99.90
15596;DHT22;7898;48.658;9.068;2024-03-06T00:18:08;4.50;99.90
15596;DHT22;7898;48.658;9.068;2024-03-06T00:20:37;4.50;99.90
15596;DHT22;7898;48.658;9.068;2024-03-06T00:23:06;4.60;99.90
15596;DHT22;7898;48.658;9.068;2024-03-06T00:25:33;4.20;99.90
15596;DHT22;7898;48.658;9.068;2024-03-06T00:28:00;4.60;99.90
15596;DHT22;7898;48.658;9.068;2024-03-06T00:30:27;4.60;99.90
15596;DHT22;7898;48.658;9.068;2024-03-06T00:32:53;4.60;99.90
15596;DHT22;7898;48.658;9.068;2024-03-06T00:35:20;4.60;99.90
15596;DHT22;7898;48.658;9.068;2024-03-06T00:37:48;4.60;99.90
15596;DHT22;7898;48.658;9.068;2024-03-06T00:40:15;4.60;99.90
15596;DHT22;7898;48.658;9.068;2024-03-06T00:42:42;4.50;99.90
15596;DHT22;7898;48.658;9.068;2024-03-06T00:45:10;4.50;99.90
15596;DHT22;7898;48.658;9.068;2024-03-06T00:47:37;4.40;99.90
15596;DHT22;7898;48.658;9.068;2024-03-06T00:50:04;4.40;99.90
15596;DHT22;7898;48.658;9.068;2024-03-06T00:52:33;4.50;99.90
15596;DHT22;7898;48.658;9.068;2024-03-06T00:55:01;4.50;99.90
15596;DHT22;7898;48.658;9.068;2024-03-06T00:57:28;4.50;99.90
15596;DHT22;7898;48.658;9.068;2024-03-06T00:59:55;4.40;99.90
15596;DHT22;7898;48.658;9.068;2024-03-06T01:02:22;4.40;99.90
15596;DHT22;7898;48.658;9.068;2024-03-06T01:04:49;4.40;99.90
15596;DHT22;7898;48.658;9.068;2024-03-06T01:07:16;4.20;99.90
15596;DHT22;7898;48.658;9.068;2024-03-06T01:09:43;4.30;99.90
15596;DHT22;7898;48.658;9.068;2024-03-06T01:12:11;4.20;99.90
15596;DHT22;7898;48.658;9.068;2024-03-06T01:14:38;4.20;99.90
15596;DHT22;7898;48.658;9.068;2024-03-06T01:17:04;4.20;99.90
15596;DHT22;7898;48.658;9.068;2024-03-06T01:19:32;4.10;99.90
15596;DHT22;7898;48.658;9.068;2024-03-06T01:21:58;4.00;99.90
15596;DHT22;7898;48.658;9.068;2024-03-06T01:24:25;4.00;99.90
15596;DHT22;7898;48.658;9.068;2024-03-06T01:26:52;4.00;99.90
15596;DHT22;7898;48.658;9.068;2024-03-06T01:29:20;3.90;99.90
15596;DHT22;7898;48.658;9.068;2024-03-06T01:31:47;4.00;99.90
15596;DHT22;7898;48.658;9.068;2024-03-06T01:34:14;3.90;99.90
15596;DHT22;7898;48.658;9.068;2024-03-06T01:36:41;4.00;99.90
15596;DHT22;7898;48.658;9.068;2024-03-06T01:39:08;3.90;99.90
15596;DHT22;7898;48.658;9.068;2024-03-06T01:41:35;4.00;99.90
15596;DHT22;7898;48.658;9.068;2024-03-06T01:44:02;4.00;99.90
15596;DHT22;7898;48.658;9.068;2024-03-06T01:46:31;4.10;99.90
15596;DHT22;7898;48.658;9.068;2024-03-06T01:48:58;4.00;99.90
15596;DHT22;7898;48.658;9.068;2024-03-06T01:51:26;4.00;99.90
15596;DHT22;7898;48.658;9.068;2024-03-06T01:53:56;4.00;99.90
15596;DHT22;7898;48.658;9.068;2024-03-06T01:56:23;4.00;99.90
15596;DHT22;7898;48.658;9.068;2024-03-06T01:58:50;3.90;99.90
15596;DHT22;7898;48.658;9.068;2024-03-06T02:01:17;3.80;99.90
15596;DHT22;7898;48.658;9.068;2024-03-06T02:03:46;3.70;99.90
15596;DHT22;7898;48.658;9.068;2024-03-06T02:06:14;3.70;99.90
15596;DHT22;7898;48.658;9.068;2024-03-06T02:08:45;3.70;99.90
15596;DHT22;7898;48.658;9.068;2024-03-06T02:11:11;3.90;99.90
15596;DHT22;7898;48.658;9.068;2024-03-06T02:13:39;3.80;99.90
15596;DHT22;7898;48.658;9.068;2024-03-06T02:16:07;3.60;99.90
15596;DHT22;7898;48.658;9.068;2024-03-06T02:18:34;3.80;99.90
15596;DHT22;7898;48.658;9.068;2024-03-06T02:21:03;4.00;99.90
15596;DHT22;7898;48.658;9.068;2024-03-06T02:23:33;3.90;99.90
15596;DHT22;7898;48.658;9.068;2024-03-06T02:25:59;3.80;99.90
15596;DHT22;7898;48.658;9.068;2024-03-06T02:28:28;3.90;99.90
15596;DHT22;7898;48.658;9.068;2024-03-06T02:30:55;3.90;99.90
15596;DHT22;7898;48.658;9.068;2024-03-06T02:33:22;3.80;99.90
15596;DHT22;7898;48.658;9.068;2024-03-06T02:35:49;3.80;99.90
15596;DHT22;7898;48.658;9.068;2024-03-06T02:38:17;3.80;99.90
15596;DHT22;7898;48.658;9.068;2024-03-06T02:40:44;3.90;99.90
15596;DHT22;7898;48.658;9.068;2024-03-06T02:43:11;3.90;99.90
15596;DHT22;7898;48.658;9.068;2024-03-06T02:45:38;4.00;99.90
15596;DHT22;7898;48.658;9.068;2024-03-06T02:48:05;4.10;99.90
15596;DHT22;7898;48.658;9.068;2024-03-06T02:50:32;4.10;99.90
15596;DHT22;7898;48.658;9.068;2024-03-06T02:52:59;4.10;99.90
15596;DHT22;7898;48.658;9.068;2024-03-06T02:55:27;4.20;99.90
15596;DHT22;7898;48.658;9.068;2024-03-06T02:57:54;4.20;99.90
15596;DHT22;7898;48.658;9.068;2024-03-06T03:00:22;4.20;99.90
15596;DHT22;7898;48.658;9.068;2024-03-06T03:02:49;4.20;99.90
15596;DHT22;7898;48.658;9.068;2024-03-06T03:05:15;4.20;99.90
15596;DHT22;7898;48.658;9.068;2024-03-06T03:07:43;4.20;99.90
15596;DHT22;7898;48.658;9.068;2024-03-06T03:10:10;4.30;99.90
15596;DHT22;7898;48.658;9.068;2024-03-06T03:12:39;4.30;99.90
15596;DHT22;7898;48.658;9.068;2024-03-06T03:15:07;4.50;99.90
15596;DHT22;7898;48.658;9.068;2024-03-06T03:17:34;4.50;99.90
15596;DHT22;7898;48.658;9.068;2024-03-06T03:20:01;4.60;99.90
15596;DHT22;7898;48.658;9.068;2024-03-06T03:22:35;4.70;99.90
15596;DHT22;7898;48.658;9.068;2024-03-06T03:25:02;4.80;99.90
15596;DHT22;7898;48.658;9.068;2024-03-06T03:27:32;4.80;99.90
15596;DHT22;7898;48.658;9.068;2024-03-06T03:30:01;4.80;99.90
15596;DHT22;7898;48.658;9.068;2024-03-06T03:32:28;4.90;99.90
15596;DHT22;7898;48.658;9.068;2024-03-06T03:34:55;5.00;99.90
15596;DHT22;7898;48.658;9.068;2024-03-06T03:37:22;5.00;99.90
15596;DHT22;7898;48.658;9.068;2024-03-06T03:39:49;5.00;99.90
15596;DHT22;7898;48.658;9.068;2024-03-06T03:42:16;5.00;99.90
15596;DHT22;7898;48.658;9.068;2024-03-06T03:44:43;5.10;99.90
15596;DHT22;7898;48.658;9.068;2024-03-06T03:47:11;5.90;99.90
15596;DHT22;7898;48.658;9.068;2024-03-06T03:49:38;5.10;99.90
15596;DHT22;7898;48.658;9.068;2024-03-06T03:52:05;5.20;99.90
15596;DHT22;7898;48.658;9.068;2024-03-06T03:54:33;5.20;99.90
15596;DHT22;7898;48.658;9.068;2024-03-06T03:57:00;5.20;99.90
15596;DHT22;7898;48.658;9.068;2024-03-06T03:59:27;5.40;99.90
15596;DHT22;7898;48.658;9.068;2024-03-06T04:01:54;5.20;99.90
15596;DHT22;7898;48.658;9.068;2024-03-06T04:04:24;5.20;99.90
15596;DHT22;7898;48.658;9.068;2024-03-06T04:06:51;5.30;99.90
15596;DHT22;7898;48.658;9.068;2024-03-06T04:09:17;5.20;99.90
15596;DHT22;7898;48.658;9.068;2024-03-06T04:11:44;5.40;99.90
15596;DHT22;7898;48.658;9.068;2024-03-06T04:14:11;5.10;99.90
15596;DHT22;7898;48.658;9.068;2024-03-06T04:16:38;5.20;99.90
15596;DHT22;7898;48.658;9.068;2024-03-06T04:19:05;5.10;99.90
15596;DHT22;7898;48.658;9.068;2024-03-06T04:21:33;5.00;99.90
15596;DHT22;7898;48.658;9.068;2024-03-06T04:24:00;5.00;99.90
15596;DHT22;7898;48.658;9.068;2024-03-06T04:26:27;5.00;99.90
15596;DHT22;7898;48.658;9.068;2024-03-06T04:28:54;5.00;99.90
15596;DHT22;7898;48.658;9.068;2024-03-06T04:31:20;5.00;99.90
15596;DHT22;7898;48.658;9.068;2024-03-06T04:33:47;5.00;99.90
15596;DHT22;7898;48.658;9.068;2024-03-06T04:36:14;5.00;99.90
15596;DHT22;7898;48.658;9.068;2024-03-06T04:38:43;5.00;99.90
15596;DHT22;7898;48.658;9.068;2024-03-06T04:41:10;5.00;99.90
15596;DHT22;7898;48.658;9.068;2024-03-06T04:43:37;5.00;99.90
15596;DHT22;7898;48.658;9.068;2024-03-06T04:46:04;5.00;99.90
15596;DHT22;7898;48.658;9.068;2024-03-06T04:48:31;5.00;99.90
15596;DHT22;7898;48.658;9.068;2024-03-06T04:50:58;5.00;99.90
15596;DHT22;7898;48.658;9.068;2024-03-06T04:53:25;5.00;99.90
15596;DHT22;7898;48.658;9.068;2024-03-06T04:55:53;5.00;99.90
15596;DHT22;7898;48.658;9.068;2024-03-06T04:58:20;5.00;99.90
15596;DHT22;7898;48.658;9.068;2024-03-06T05:00:47;5.10;99.90
15596;DHT22;7898;48.658;9.068;2024-03-06T05:03:14;5.10;99.90
15596;DHT22;7898;48.658;9.068;2024-03-06T05:05:41;5.00;99.90
15596;DHT22;7898;48.658;9.068;2024-03-06T05:08:08;5.00;99.90
15596;DHT22;7898;48.658;9.068;2024-03-06T05:10:36;5.00;99.90
15596;DHT22;7898;48.658;9.068;2024-03-06T05:13:04;5.30;99.90
15596;DHT22;7898;48.658;9.068;2024-03-06T05:15:31;5.10;99.90
15596;DHT22;7898;48.658;9.068;2024-03-06T05:17:58;5.10;99.90
15596;DHT22;7898;48.658;9.068;2024-03-06T05:20:26;5.10;99.90
15596;DHT22;7898;48.658;9.068;2024-03-06T05:22:53;5.10;99.90
15596;DHT22;7898;48.658;9.068;2024-03-06T05:25:20;5.10;99.90
15596;DHT22;7898;48.658;9.068;2024-03-06T05:27:47;5.10;99.90
15596;DHT22;7898;48.658;9.068;2024-03-06T05:30:15;5.10;99.90
15596;DHT22;7898;48.658;9.068;2024-03-06T05:32:43;5.10;99.90
15596;DHT22;7898;48.658;9.068;2024-03-06T05:35:09;5.10;99.90
15596;DHT22;7898;48.658;9.068;2024-03-06T05:37:37;5.10;99.90
15596;DHT22;7898;48.658;9.068;2024-03-06T05:40:05;5.90;99.90
15596;DHT22;7898;48.658;9.068;2024-03-06T05:42:34;5.00;99.90
15596;DHT22;7898;48.658;9.068;2024-03-06T05:45:01;5.10;99.90
15596;DHT22;7898;48.658;9.068;2024-03-06T05:47:32;5.00;99.90
15596;DHT22;7898;48.658;9.068;2024-03-06T05:49:59;5.20;99.90
15596;DHT22;7898;48.658;9.068;2024-03-06T05:52:30;5.50;99.90
15596;DHT22;7898;48.658;9.068;2024-03-06T05:54:57;5.00;99.90
15596;DHT22;7898;48.658;9.068;2024-03-06T05:57:23;5.00;99.90
15596;DHT22;7898;48.658;9.068;2024-03-06T05:59:50;5.00;99.90
15596;DHT22;7898;48.658;9.068;2024-03-06T06:02:17;5.00;99.90
15596;DHT22;7898;48.658;9.068;2024-03-06T06:04:46;5.10;99.90
15596;DHT22;7898;48.658;9.068;2024-03-06T06:07:13;5.10;99.90
15596;DHT22;7898;48.658;9.068;2024-03-06T06:09:41;5.00;99.90
15596;DHT22;7898;48.658;9.068;2024-03-06T06:12:08;5.10;99.90
15596;DHT22;7898;48.658;9.068;2024-03-06T06:14:35;4.90;99.90
15596;DHT22;7898;48.658;9.068;2024-03-06T06:17:02;5.10;99.90
15596;DHT22;7898;48.658;9.068;2024-03-06T06:19:29;5.10;99.90
15596;DHT22;7898;48.658;9.068;2024-03-06T06:21:57;5.10;99.90
15596;DHT22;7898;48.658;9.068;2024-03-06T06:24:25;5.10;99.90
15596;DHT22;7898;48.658;9.068;2024-03-06T06:26:52;5.10;99.90
15596;DHT22;7898;48.658;9.068;2024-03-06T06:29:18;5.00;99.90
15596;DHT22;7898;48.658;9.068;2024-03-06T06:31:45;5.00;99.90
15596;DHT22;7898;48.658;9.068;2024-03-06T06:34:12;5.00;99.90
15596;DHT22;7898;48.658;9.068;2024-03-06T06:36:45;5.00;99.90
15596;DHT22;7898;48.658;9.068;2024-03-06T06:39:13;5.00;99.90
15596;DHT22;7898;48.658;9.068;2024-03-06T06:41:42;5.10;99.90
15596;DHT22;7898;48.658;9.068;2024-03-06T06:44:09;5.10;99.90
15596;DHT22;7898;48.658;9.068;2024-03-06T06:46:37;5.10;99.90
15596;DHT22;7898;48.658;9.068;2024-03-06T06:49:03;5.10;99.90
15596;DHT22;7898;48.658;9.068;2024-03-06T06:51:30;5.20;99.90
15596;DHT22;7898;48.658;9.068;2024-03-06T06:53:57;5.20;99.90
15596;DHT22;7898;48.658;9.068;2024-03-06T06:56:25;5.20;99.90
15596;DHT22;7898;48.658;9.068;2024-03-06T06:58:52;5.30;99.90
15596;DHT22;7898;48.658;9.068;2024-03-06T07:01:19;5.30;99.90
15596;DHT22;7898;48.658;9.068;2024-03-06T07:03:47;5.30;99.90
15596;DHT22;7898;48.658;9.068;2024-03-06T07:06:14;5.30;99.90
15596;DHT22;7898;48.658;9.068;2024-03-06T07:08:41;5.30;99.90
15596;DHT22;7898;48.658;9.068;2024-03-06T07:11:07;5.40;99.90
15596;DHT22;7898;48.658;9.068;2024-03-06T07:13:37;5.40;99.90
15596;DHT22;7898;48.658;9.068;2024-03-06T07:16:05;5.40;99.90
15596;DHT22;7898;48.658;9.068;2024-03-06T07:18:32;5.40;99.90
15596;DHT22;7898;48.658;9.068;2024-03-06T07:20:59;5.50;99.90
15596;DHT22;7898;48.658;9.068;2024-03-06T07:23:26;5.40;99.90
15596;DHT22;7898;48.658;9.068;2024-03-06T07:25:53;5.50;99.90
15596;DHT22;7898;48.658;9.068;2024-03-06T07:28:20;5.50;99.90
15596;DHT22;7898;48.658;9.068;2024-03-06T07:30:48;5.60;99.90
15596;DHT22;7898;48.658;9.068;2024-03-06T07:33:15;5.60;99.90
15596;DHT22;7898;48.658;9.068;2024-03-06T07:35:42;5.60;99.90
15596;DHT22;7898;48.658;9.068;2024-03-06T07:38:09;5.80;99.90
15596;DHT22;7898;48.658;9.068;2024-03-06T07:40:36;5.60;99.90
15596;DHT22;7898;48.658;9.068;2024-03-06T07:43:03;5.60;99.90
15596;DHT22;7898;48.658;9.068;2024-03-06T07:45:31;5.60;99.90
15596;DHT22;7898;48.658;9.068;2024-03-06T07:48:00;5.60;99.90
15596;DHT22;7898;48.658;9.068;2024-03-06T07:50:27;5.60;99.90
15596;DHT22;7898;48.658;9.068;2024-03-06T07:52:54;5.60;99.90
15596;DHT22;7898;48.658;9.068;2024-03-06T07:55:21;5.60;99.90
15596;DHT22;7898;48.658;9.068;2024-03-06T07:57:48;5.70;99.90
15596;DHT22;7898;48.658;9.068;2024-03-06T08:00:15;5.70;99.90
15596;DHT22;7898;48.658;9.068;2024-03-06T08:02:45;5.70;99.90
15596;DHT22;7898;48.658;9.068;2024-03-06T08:05:17;5.80;99.90
15596;DHT22;7898;48.658;9.068;2024-03-06T08:07:44;5.70;99.90
15596;DHT22;7898;48.658;9.068;2024-03-06T08:10:12;5.80;99.90
15596;DHT22;7898;48.658;9.068;2024-03-06T08:12:40;5.80;99.90
15596;DHT22;7898;48.658;9.068;2024-03-06T08:15:09;5.80;99.90
15596;DHT22;7898;48.658;9.068;2024-03-06T08:17:40;5.90;99.90
15596;DHT22;7898;48.658;9.068;2024-03-06T08:20:08;6.00;99.90
15596;DHT22;7898;48.658;9.068;2024-03-06T08:22:38;6.00;99.90
15596;DHT22;7898;48.658;9.068;2024-03-06T08:25:06;6.00;99.90
15596;DHT22;7898;48.658;9.068;2024-03-06T08:27:34;6.00;99.90
15596;DHT22;7898;48.658;9.068;2024-03-06T08:30:02;6.00;99.90
15596;DHT22;7898;48.658;9.068;2024-03-06T08:32:30;6.00;99.90
15596;DHT22;7898;48.658;9.068;2024-03-06T08:34:57;6.10;99.90
15596;DHT22;7898;48.658;9.068;2024-03-06T08:37:24;6.10;99.90
15596;DHT22;7898;48.658;9.068;2024-03-06T08:39:52;6.20;99.90
15596;DHT22;7898;48.658;9.068;2024-03-06T08:42:19;6.20;99.90
15596;DHT22;7898;48.658;9.068;2024-03-06T08:44:46;6.20;99.90
15596;DHT22;7898;48.658;9.068;2024-03-06T08:47:13;6.20;99.90
15596;DHT22;7898;48.658;9.068;2024-03-06T08:49:40;6.20;99.90
15596;DHT22;7898;48.658;9.068;2024-03-06T08:52:07;6.30;99.90
15596;DHT22;7898;48.658;9.068;2024-03-06T08:54:35;6.30;99.90
15596;DHT22;7898;48.658;9.068;2024-03-06T08:57:04;6.40;99.90
15596;DHT22;7898;48.658;9.068;2024-03-06T08:59:31;6.40;99.90
15596;DHT22;7898;48.658;9.068;2024-03-06T09:01:58;6.50;99.90
15596;DHT22;7898;48.658;9.068;2024-03-06T09:04:38;6.60;99.90
15596;DHT22;7898;48.658;9.068;2024-03-06T09:07:05;6.50;99.90
15596;DHT22;7898;48.658;9.068;2024-03-06T09:09:32;6.50;99.90
15596;DHT22;7898;48.658;9.068;2024-03-06T09:11:59;6.40;99.90
15596;DHT22;7898;48.658;9.068;2024-03-06T09:14:27;6.40;99.90
15596;DHT22;7898;48.658;9.068;2024-03-06T09:16:54;6.40;99.90
15596;DHT22;7898;48.658;9.068;2024-03-06T09:19:21;6.40;99.90
15596;DHT22;7898;48.658;9.068;2024-03-06T09:21:48;6.40;99.90
15596;DHT22;7898;48.658;9.068;2024-03-06T09:24:15;6.40;99.90
15596;DHT22;7898;48.658;9.068;2024-03-06T09:26:43;6.40;99.90
15596;DHT22;7898;48.658;9.068;2024-03-06T09:29:10;6.30;99.90
15596;DHT22;7898;48.658;9.068;2024-03-06T09:31:39;6.30;99.90
15596;DHT22;7898;48.658;9.068;2024-03-06T09:34:06;6.30;99.90
15596;DHT22;7898;48.658;9.068;2024-03-06T09:36:33;6.30;99.90
15596;DHT22;7898;48.658;9.068;2024-03-06T09:39:00;6.20;99.90
15596;DHT22;7898;48.658;9.068;2024-03-06T09:41:30;6.20;99.90
15596;DHT22;7898;48.658;9.068;2024-03-06T09:43:58;6.20;99.90
15596;DHT22;7898;48.658;9.068;2024-03-06T09:46:26;6.20;99.90
15596;DHT22;7898;48.658;9.068;2024-03-06T09:48:56;6.20;99.90
15596;DHT22;7898;48.658;9.068;2024-03-06T09:51:23;6.20;99.90
15596;DHT22;7898;48.658;9.068;2024-03-06T09:53:50;6.20;99.90
15596;DHT22;7898;48.658;9.068;2024-03-06T09:56:19;6.30;99.90
15596;DHT22;7898;48.658;9.068;2024-03-06T09:58:46;6.30;99.90
15596;DHT22;7898;48.658;9.068;2024-03-06T10:01:14;6.40;99.90
15596;DHT22;7898;48.658;9.068;2024-03-06T10:03:42;6.50;99.90
15596;DHT22;7898;48.658;9.068;2024-03-06T10:06:10;6.60;99.90
15596;DHT22;7898;48.658;9.068;2024-03-06T10:08:42;6.60;99.90
15596;DHT22;7898;48.658;9.068;2024-03-06T10:11:11;6.70;99.90
15596;DHT22;7898;48.658;9.068;2024-03-06T10:13:38;6.60;99.90
15596;DHT22;7898;48.658;9.068;2024-03-06T10:16:06;6.60;99.90
15596;DHT22;7898;48.658;9.068;2024-03-06T10:18:36;6.60;99.90
15596;DHT22;7898;48.658;9.068;2024-03-06T10:21:04;6.60;99.90
15596;DHT22;7898;48.658;9.068;2024-03-06T10:23:34;6.50;99.90
15596;DHT22;7898;48.658;9.068;2024-03-06T10:26:02;6.50;99.90
15596;DHT22;7898;48.658;9.068;2024-03-06T10:28:33;6.40;99.90
15596;DHT22;7898;48.658;9.068;2024-03-06T10:31:04;6.40;99.90
15596;DHT22;7898;48.658;9.068;2024-03-06T10:33:34;6.40;99.90
15596;DHT22;7898;48.658;9.068;2024-03-06T10:36:01;6.50;99.90
15596;DHT22;7898;48.658;9.068;2024-03-06T10:38:30;6.40;99.90
15596;DHT22;7898;48.658;9.068;2024-03-06T10:40:59;6.50;99.90
15596;DHT22;7898;48.658;9.068;2024-03-06T10:43:28;6.50;99.90
15596;DHT22;7898;48.658;9.068;2024-03-06T10:46:00;6.60;99.90
15596;DHT22;7898;48.658;9.068;2024-03-06T10:48:30;6.60;99.90
15596;DHT22;7898;48.658;9.068;2024-03-06T10:50:58;6.60;99.90
15596;DHT22;7898;48.658;9.068;2024-03-06T10:53:26;6.60;99.90
15596;DHT22;7898;48.658;9.068;2024-03-06T10:55:53;6.60;99.90
15596;DHT22;7898;48.658;9.068;2024-03-06T10:58:22;6.60;99.90
15596;DHT22;7898;48.658;9.068;2024-03-06T11:00:51;6.70;99.90
15596;DHT22;7898;48.658;9.068;2024-03-06T11:03:19;6.70;99.90
15596;DHT22;7898;48.658;9.068;2024-03-06T11:05:46;6.80;99.90
15596;DHT22;7898;48.658;9.068;2024-03-06T11:08:16;6.90;99.90
15596;DHT22;7898;48.658;9.068;2024-03-06T11:10:43;6.90;99.90
15596;DHT22;7898;48.658;9.068;2024-03-06T11:13:23;6.90;99.90
15596;DHT22;7898;48.658;9.068;2024-03-06T11:15:52;6.90;99.90
15596;DHT22;7898;48.658;9.068;2024-03-06T11:18:40;6.90;99.90
15596;DHT22;7898;48.658;9.068;2024-03-06T11:21:28;6.90;99.90
15596;DHT22;7898;48.658;9.068;2024-03-06T11:24:15;6.90;99.90
15596;DHT22;7898;48.658;9.068;2024-03-06T11:26:43;6.90;99.90
15596;DHT22;7898;48.658;9.068;2024-03-06T11:29:15;6.90;99.90
15596;DHT22;7898;48.658;9.068;2024-03-06T11:32:00;6.90;99.90
15596;DHT22;7898;48.658;9.068;2024-03-06T11:34:28;6.90;99.90
15596;DHT22;7898;48.658;9.068;2024-03-06T11:36:56;7.00;99.90
15596;DHT22;7898;48.658;9.068;2024-03-06T11:39:24;6.80;99.90
15596;DHT22;7898;48.658;9.068;2024-03-06T11:41:51;6.80;99.90
15596;DHT22;7898;48.658;9.068;2024-03-06T11:44:20;6.80;99.90
15596;DHT22;7898;48.658;9.068;2024-03-06T11:46:50;6.80;99.90
15596;DHT22;7898;48.658;9.068;2024-03-06T11:49:20;6.70;99.90
15596;DHT22;7898;48.658;9.068;2024-03-06T11:52:15;6.70;99.90
15596;DHT22;7898;48.658;9.068;2024-03-06T11:54:42;6.80;99.90
15596;DHT22;7898;48.658;9.068;2024-03-06T11:57:09;6.80;99.90
15596;DHT22;7898;48.658;9.068;2024-03-06T11:59:39;6.80;99.90
15596;DHT22;7898;48.658;9.068;2024-03-06T12:02:06;6.90;99.90
15596;DHT22;7898;48.658;9.068;2024-03-06T12:04:36;6.80;99.90
15596;DHT22;7898;48.658;9.068;2024-03-06T12:07:03;6.80;99.90
15596;DHT22;7898;48.658;9.068;2024-03-06T12:09:32;6.80;99.90
15596;DHT22;7898;48.658;9.068;2024-03-06T12:11:59;6.80;99.90
15596;DHT22;7898;48.658;9.068;2024-03-06T12:14:27;6.80;99.90
15596;DHT22;7898;48.658;9.068;2024-03-06T12:16:56;6.80;99.90
15596;DHT22;7898;48.658;9.068;2024-03-06T12:19:26;6.70;99.90
15596;DHT22;7898;48.658;9.068;2024-03-06T12:21:53;6.70;99.90
15596;DHT22;7898;48.658;9.068;2024-03-06T12:24:20;6.60;99.90
15596;DHT22;7898;48.658;9.068;2024-03-06T12:26:58;6.60;99.90
15596;DHT22;7898;48.658;9.068;2024-03-06T12:29:28;6.60;99.90
15596;DHT22;7898;48.658;9.068;2024-03-06T12:31:57;6.60;99.90
15596;DHT22;7898;48.658;9.068;2024-03-06T12:34:24;6.60;99.90
15596;DHT22;7898;48.658;9.068;2024-03-06T12:36:51;6.60;99.90
15596;DHT22;7898;48.658;9.068;2024-03-06T12:39:18;6.50;99.90
15596;DHT22;7898;48.658;9.068;2024-03-06T12:41:48;6.60;99.90
15596;DHT22;7898;48.658;9.068;2024-03-06T12:44:16;6.50;99.90
15596;DHT22;7898;48.658;9.068;2024-03-06T12:46:43;6.50;99.90
15596;DHT22;7898;48.658;9.068;2024-03-06T12:49:11;6.60;99.90
15596;DHT22;7898;48.658;9.068;2024-03-06T12:51:38;6.70;99.90
15596;DHT22;7898;48.658;9.068;2024-03-06T12:54:06;6.70;99.90
15596;DHT22;7898;48.658;9.068;2024-03-06T12:56:34;6.80;99.90
15596;DHT22;7898;48.658;9.068;2024-03-06T12:59:01;6.70;99.90
15596;DHT22;7898;48.658;9.068;2024-03-06T13:01:29;6.70;99.90
15596;DHT22;7898;48.658;9.068;2024-03-06T13:03:57;6.70;99.90
15596;DHT22;7898;48.658;9.068;2024-03-06T13:06:26;6.70;99.90
15596;DHT22;7898;48.658;9.068;2024-03-06T13:08:54;6.70;99.90
15596;DHT22;7898;48.658;9.068;2024-03-06T13:11:20;6.70;99.90
15596;DHT22;7898;48.658;9.068;2024-03-06T13:13:48;6.70;99.90
15596;DHT22;7898;48.658;9.068;2024-03-06T13:16:15;6.70;99.90
15596;DHT22;7898;48.658;9.068;2024-03-06T13:18:42;6.70;99.90
15596;DHT22;7898;48.658;9.068;2024-03-06T13:21:09;6.70;99.90
15596;DHT22;7898;48.658;9.068;2024-03-06T13:23:37;6.70;99.90
15596;DHT22;7898;48.658;9.068;2024-03-06T13:26:04;6.80;99.90
15596;DHT22;7898;48.658;9.068;2024-03-06T13:28:31;6.80;99.90
15596;DHT22;7898;48.658;9.068;2024-03-06T13:30:59;6.80;99.90
15596;DHT22;7898;48.658;9.068;2024-03-06T13:33:26;6.80;99.90
15596;DHT22;7898;48.658;9.068;2024-03-06T13:35:53;6.90;99.90
15596;DHT22;7898;48.658;9.068;2024-03-06T13:38:21;6.80;99.90
15596;DHT22;7898;48.658;9.068;2024-03-06T13:40:49;6.90;99.90
15596;DHT22;7898;48.658;9.068;2024-03-06T13:43:16;6.90;99.90
15596;DHT22;7898;48.658;9.068;2024-03-06T13:45:49;6.90;99.90
15596;DHT22;7898;48.658;9.068;2024-03-06T13:48:16;7.00;99.90
15596;DHT22;7898;48.658;9.068;2024-03-06T13:50:43;7.00;99.90
15596;DHT22;7898;48.658;9.068;2024-03-06T13:53:11;7.00;99.90
15596;DHT22;7898;48.658;9.068;2024-03-06T13:55:38;6.90;99.90
15596;DHT22;7898;48.658;9.068;2024-03-06T13:58:07;7.00;99.90
15596;DHT22;7898;48.658;9.068;2024-03-06T14:00:34;7.00;99.90
15596;DHT22;7898;48.658;9.068;2024-03-06T14:03:01;7.00;99.90
15596;DHT22;7898;48.658;9.068;2024-03-06T14:05:28;7.10;99.90
15596;DHT22;7898;48.658;9.068;2024-03-06T14:07:55;7.00;99.90
15596;DHT22;7898;48.658;9.068;2024-03-06T14:10:22;7.10;99.90
15596;DHT22;7898;48.658;9.068;2024-03-06T14:12:50;7.00;99.90
15596;DHT22;7898;48.658;9.068;2024-03-06T14:15:19;7.00;99.90
15596;DHT22;7898;48.658;9.068;2024-03-06T14:17:46;7.00;99.90
15596;DHT22;7898;48.658;9.068;2024-03-06T14:20:13;7.20;99.90
15596;DHT22;7898;48.658;9.068;2024-03-06T14:22:41;7.00;99.90
15596;DHT22;7898;48.658;9.068;2024-03-06T14:25:08;6.90;99.90
15596;DHT22;7898;48.658;9.068;2024-03-06T14:27:36;6.90;99.90
15596;DHT22;7898;48.658;9.068;2024-03-06T14:30:04;7.00;99.90
15596;DHT22;7898;48.658;9.068;2024-03-06T14:32:34;7.00;99.90
15596;DHT22;7898;48.658;9.068;2024-03-06T14:35:01;7.00;99.90
15596;DHT22;7898;48.658;9.068;2024-03-06T14:37:30;7.00;99.90
15596;DHT22;7898;48.658;9.068;2024-03-06T14:40:10;7.00;99.90
15596;DHT22;7898;48.658;9.068;2024-03-06T14:42:38;7.00;99.90
15596;DHT22;7898;48.658;9.068;2024-03-06T14:45:06;6.90;99.90
15596;DHT22;7898;48.658;9.068;2024-03-06T14:47:34;7.00;99.90
15596;DHT22;7898;48.658;9.068;2024-03-06T14:50:02;7.00;99.90
15596;DHT22;7898;48.658;9.068;2024-03-06T14:52:29;6.90;99.90
15596;DHT22;7898;48.658;9.068;2024-03-06T14:54:56;7.80;99.90
15596;DHT22;7898;48.658;9.068;2024-03-06T14:57:23;6.90;99.90
15596;DHT22;7898;48.658;9.068;2024-03-06T14:59:50;6.90;99.90
15596;DHT22;7898;48.658;9.068;2024-03-06T15:02:17;5.90;99.90
15596;DHT22;7898;48.658;9.068;2024-03-06T15:04:45;6.80;99.90
15596;DHT22;7898;48.658;9.068;2024-03-06T15:07:12;6.80;99.90
15596;DHT22;7898;48.658;9.068;2024-03-06T15:09:39;6.80;99.90
15596;DHT22;7898;48.658;9.068;2024-03-06T15:12:07;6.80;99.90
15596;DHT22;7898;48.658;9.068;2024-03-06T15:14:34;6.80;99.90
15596;DHT22;7898;48.658;9.068;2024-03-06T15:17:01;6.70;99.90
15596;DHT22;7898;48.658;9.068;2024-03-06T15:19:28;6.80;99.90
15596;DHT22;7898;48.658;9.068;2024-03-06T15:21:56;6.80;99.90
15596;DHT22;7898;48.658;9.068;2024-03-06T15:24:29;6.70;99.90
15596;DHT22;7898;48.658;9.068;2024-03-06T15:26:56;6.70;99.90
15596;DHT22;7898;48.658;9.068;2024-03-06T15:29:23;6.70;99.90
15596;DHT22;7898;48.658;9.068;2024-03-06T15:31:49;6.80;99.90
15596;DHT22;7898;48.658;9.068;2024-03-06T15:34:16;6.80;99.90
15596;DHT22;7898;48.658;9.068;2024-03-06T15:36:43;6.80;99.90
15596;DHT22;7898;48.658;9.068;2024-03-06T15:39:12;6.70;99.90
15596;DHT22;7898;48.658;9.068;2024-03-06T15:41:38;6.80;99.90
15596;DHT22;7898;48.658;9.068;2024-03-06T15:44:05;6.90;99.90
15596;DHT22;7898;48.658;9.068;2024-03-06T15:46:33;6.80;99.90
15596;DHT22;7898;48.658;9.068;2024-03-06T15:49:06;6.90;99.90
15596;DHT22;7898;48.658;9.068;2024-03-06T15:51:33;6.90;99.90
15596;DHT22;7898;48.658;9.068;2024-03-06T15:54:00;6.90;99.90
15596;DHT22;7898;48.658;9.068;2024-03-06T15:56:28;6.90;99.90
15596;DHT22;7898;48.658;9.068;2024-03-06T15:58:55;6.90;99.90
15596;DHT22;7898;48.658;9.068;2024-03-06T16:01:22;6.90;99.90
15596;DHT22;7898;48.658;9.068;2024-03-06T16:03:49;6.80;99.90
15596;DHT22;7898;48.658;9.068;2024-03-06T16:06:18;6.80;99.90